sensor_id;sensor_type;location;lat;lon;timestamp;P1;durP1;ratioP1;P2;durP2;ratioP2
29280;SDS011;25048;49.590;11.026;2023-12-28T00:00:08;6.73;;;4.33;;
29280;SDS011;25048;49.590;11.026;2023-12-28T00:02:36;8.73;;;4.87;;
29280;SDS011;25048;49.590;11.026;2023-12-28T00:05:03;7.63;;;4.37;;
29280;SDS011;25048;49.590;11.026;2023-12-28T00:07:31;6.73;;;4.20;;
29280;SDS011;25048;49.590;11.026;2023-12-28T00:09:58;6.40;;;4.00;;
29280;SDS011;25048;49.590;11.026;2023-12-28T00:12:26;4.70;;;3.57;;
29280;SDS011;25048;49.590;11.026;2023-12-28T00:14:54;7.63;;;3.93;;
29280;SDS011;25048;49.590;11.026;2023-12-28T00:17:21;8.67;;;4.10;;
29280;SDS011;25048;49.590;11.026;2023-12-28T00:19:48;5.63;;;3.67;;
29280;SDS011;25048;49.590;11.026;2023-12-28T00:22:16;5.83;;;3.50;;
29280;SDS011;25048;49.590;11.026;2023-12-28T00:24:44;5.30;;;3.60;;
29280;SDS011;25048;49.590;11.026;2023-12-28T00:27:11;4.17;;;3.33;;
29280;SDS011;25048;49.590;11.026;2023-12-28T00:29:39;5.23;;;3.07;;
29280;SDS011;25048;49.590;11.026;2023-12-28T00:32:07;5.20;;;3.17;;
29280;SDS011;25048;49.590;11.026;2023-12-28T00:34:35;5.17;;;3.13;;
29280;SDS011;25048;49.590;11.026;2023-12-28T00:37:03;9.43;;;3.80;;
29280;SDS011;25048;49.590;11.026;2023-12-28T00:39:30;5.00;;;3.80;;
29280;SDS011;25048;49.590;11.026;2023-12-28T00:41:58;8.77;;;3.70;;
29280;SDS011;25048;49.590;11.026;2023-12-28T00:44:25;7.37;;;3.73;;
29280;SDS011;25048;49.590;11.026;2023-12-28T00:46:53;7.03;;;3.90;;
29280;SDS011;25048;49.590;11.026;2023-12-28T00:49:20;7.13;;;3.50;;
29280;SDS011;25048;49.590;11.026;2023-12-28T00:51:48;8.37;;;3.70;;
29280;SDS011;25048;49.590;11.026;2023-12-28T00:54:15;7.73;;;3.73;;
29280;SDS011;25048;49.590;11.026;2023-12-28T00:56:43;10.47;;;4.10;;
29280;SDS011;25048;49.590;11.026;2023-12-28T00:59:10;6.23;;;3.43;;
29280;SDS011;25048;49.590;11.026;2023-12-28T01:01:38;5.03;;;3.33;;
29280;SDS011;25048;49.590;11.026;2023-12-28T01:04:05;8.80;;;3.73;;
29280;SDS011;25048;49.590;11.026;2023-12-28T01:06:33;8.43;;;3.13;;
29280;SDS011;25048;49.590;11.026;2023-12-28T01:09:00;7.43;;;3.47;;
29280;SDS011;25048;49.590;11.026;2023-12-28T01:11:28;5.73;;;3.50;;
29280;SDS011;25048;49.590;11.026;2023-12-28T01:13:55;7.37;;;3.90;;
29280;SDS011;25048;49.590;11.026;2023-12-28T01:16:23;7.97;;;3.83;;
29280;SDS011;25048;49.590;11.026;2023-12-28T01:18:51;6.03;;;3.70;;
29280;SDS011;25048;49.590;11.026;2023-12-28T01:21:18;7.87;;;3.50;;
29280;SDS011;25048;49.590;11.026;2023-12-28T01:23:46;5.40;;;3.50;;
29280;SDS011;25048;49.590;11.026;2023-12-28T01:26:13;6.67;;;3.30;;
29280;SDS011;25048;49.590;11.026;2023-12-28T01:28:41;6.50;;;2.97;;
29280;SDS011;25048;49.590;11.026;2023-12-28T01:31:09;6.67;;;3.30;;
29280;SDS011;25048;49.590;11.026;2023-12-28T01:33:36;4.60;;;3.00;;
29280;SDS011;25048;49.590;11.026;2023-12-28T01:36:15;4.80;;;3.33;;
29280;SDS011;25048;49.590;11.026;2023-12-28T01:38:45;6.90;;;3.10;;
29280;SDS011;25048;49.590;11.026;2023-12-28T01:41:13;6.90;;;3.70;;
29280;SDS011;25048;49.590;11.026;2023-12-28T01:43:42;6.70;;;3.60;;
29280;SDS011;25048;49.590;11.026;2023-12-28T01:46:16;6.90;;;3.33;;
29280;SDS011;25048;49.590;11.026;2023-12-28T01:48:47;5.33;;;3.77;;
29280;SDS011;25048;49.590;11.026;2023-12-28T01:51:16;9.43;;;3.90;;
29280;SDS011;25048;49.590;11.026;2023-12-28T01:53:45;13.07;;;3.87;;
29280;SDS011;25048;49.590;11.026;2023-12-28T01:56:14;5.53;;;3.50;;
29280;SDS011;25048;49.590;11.026;2023-12-28T01:58:43;7.83;;;3.73;;
29280;SDS011;25048;49.590;11.026;2023-12-28T02:01:12;8.23;;;3.60;;
29280;SDS011;25048;49.590;11.026;2023-12-28T02:03:40;6.43;;;3.40;;
29280;SDS011;25048;49.590;11.026;2023-12-28T02:06:08;5.73;;;3.30;;
29280;SDS011;25048;49.590;11.026;2023-12-28T02:08:35;5.90;;;3.77;;
29280;SDS011;25048;49.590;11.026;2023-12-28T02:11:03;5.50;;;3.40;;
29280;SDS011;25048;49.590;11.026;2023-12-28T02:13:31;7.20;;;3.53;;
29280;SDS011;25048;49.590;11.026;2023-12-28T02:16:00;4.70;;;3.40;;
29280;SDS011;25048;49.590;11.026;2023-12-28T02:18:37;5.47;;;3.10;;
29280;SDS011;25048;49.590;11.026;2023-12-28T02:21:06;7.77;;;3.47;;
29280;SDS011;25048;49.590;11.026;2023-12-28T02:23:34;5.03;;;3.63;;
29280;SDS011;25048;49.590;11.026;2023-12-28T02:26:02;7.60;;;4.13;;
29280;SDS011;25048;49.590;11.026;2023-12-28T02:28:30;4.33;;;2.90;;
29280;SDS011;25048;49.590;11.026;2023-12-28T02:30:58;5.70;;;3.97;;
29280;SDS011;25048;49.590;11.026;2023-12-28T02:36:04;5.00;;;3.53;;
29280;SDS011;25048;49.590;11.026;2023-12-28T02:38:33;6.83;;;3.00;;
29280;SDS011;25048;49.590;11.026;2023-12-28T02:41:03;7.47;;;4.17;;
29280;SDS011;25048;49.590;11.026;2023-12-28T02:43:31;6.10;;;3.77;;
29280;SDS011;25048;49.590;11.026;2023-12-28T02:45:59;6.07;;;4.03;;
29280;SDS011;25048;49.590;11.026;2023-12-28T02:48:26;7.80;;;3.83;;
29280;SDS011;25048;49.590;11.026;2023-12-28T02:50:54;6.53;;;3.50;;
29280;SDS011;25048;49.590;11.026;2023-12-28T02:53:21;6.20;;;3.47;;
29280;SDS011;25048;49.590;11.026;2023-12-28T02:55:49;7.07;;;3.73;;
29280;SDS011;25048;49.590;11.026;2023-12-28T02:58:16;6.47;;;2.97;;
29280;SDS011;25048;49.590;11.026;2023-12-28T03:00:45;4.90;;;3.50;;
29280;SDS011;25048;49.590;11.026;2023-12-28T03:03:14;5.67;;;3.20;;
29280;SDS011;25048;49.590;11.026;2023-12-28T03:05:42;5.97;;;4.10;;
29280;SDS011;25048;49.590;11.026;2023-12-28T03:08:09;6.17;;;3.73;;
29280;SDS011;25048;49.590;11.026;2023-12-28T03:10:37;5.73;;;3.23;;
29280;SDS011;25048;49.590;11.026;2023-12-28T03:13:04;7.03;;;3.77;;
29280;SDS011;25048;49.590;11.026;2023-12-28T03:15:32;7.50;;;3.50;;
29280;SDS011;25048;49.590;11.026;2023-12-28T03:17:59;5.80;;;3.90;;
29280;SDS011;25048;49.590;11.026;2023-12-28T03:20:27;6.30;;;3.60;;
29280;SDS011;25048;49.590;11.026;2023-12-28T03:22:54;6.00;;;3.23;;
29280;SDS011;25048;49.590;11.026;2023-12-28T03:25:22;8.60;;;3.70;;
29280;SDS011;25048;49.590;11.026;2023-12-28T03:27:49;4.90;;;3.33;;
29280;SDS011;25048;49.590;11.026;2023-12-28T03:30:17;6.53;;;3.20;;
29280;SDS011;25048;49.590;11.026;2023-12-28T03:32:44;6.50;;;3.20;;
29280;SDS011;25048;49.590;11.026;2023-12-28T03:35:12;5.27;;;3.63;;
29280;SDS011;25048;49.590;11.026;2023-12-28T03:37:39;4.97;;;2.90;;
29280;SDS011;25048;49.590;11.026;2023-12-28T03:40:07;7.67;;;3.63;;
29280;SDS011;25048;49.590;11.026;2023-12-28T03:42:35;5.07;;;3.20;;
29280;SDS011;25048;49.590;11.026;2023-12-28T03:45:04;8.00;;;3.20;;
29280;SDS011;25048;49.590;11.026;2023-12-28T03:47:32;4.87;;;2.97;;
29280;SDS011;25048;49.590;11.026;2023-12-28T03:49:59;6.37;;;3.13;;
29280;SDS011;25048;49.590;11.026;2023-12-28T03:52:27;7.57;;;3.43;;
29280;SDS011;25048;49.590;11.026;2023-12-28T03:54:56;4.53;;;3.07;;
29280;SDS011;25048;49.590;11.026;2023-12-28T03:57:23;6.27;;;2.90;;
29280;SDS011;25048;49.590;11.026;2023-12-28T03:59:52;4.50;;;2.90;;
29280;SDS011;25048;49.590;11.026;2023-12-28T04:02:20;7.60;;;3.20;;
29280;SDS011;25048;49.590;11.026;2023-12-28T04:04:47;4.30;;;2.90;;
29280;SDS011;25048;49.590;11.026;2023-12-28T04:07:15;5.20;;;2.70;;
29280;SDS011;25048;49.590;11.026;2023-12-28T04:09:42;4.10;;;2.70;;
29280;SDS011;25048;49.590;11.026;2023-12-28T04:12:10;4.83;;;2.80;;
29280;SDS011;25048;49.590;11.026;2023-12-28T04:14:37;5.27;;;3.03;;
29280;SDS011;25048;49.590;11.026;2023-12-28T04:17:05;5.10;;;2.70;;
29280;SDS011;25048;49.590;11.026;2023-12-28T04:19:32;5.17;;;2.67;;
29280;SDS011;25048;49.590;11.026;2023-12-28T04:22:00;3.50;;;2.50;;
29280;SDS011;25048;49.590;11.026;2023-12-28T04:24:27;5.63;;;2.80;;
29280;SDS011;25048;49.590;11.026;2023-12-28T04:26:55;4.77;;;2.37;;
29280;SDS011;25048;49.590;11.026;2023-12-28T04:29:22;5.73;;;2.30;;
29280;SDS011;25048;49.590;11.026;2023-12-28T04:31:50;6.73;;;2.70;;
29280;SDS011;25048;49.590;11.026;2023-12-28T04:34:17;6.30;;;2.40;;
29280;SDS011;25048;49.590;11.026;2023-12-28T04:36:45;7.07;;;2.40;;
29280;SDS011;25048;49.590;11.026;2023-12-28T04:39:14;4.43;;;2.50;;
29280;SDS011;25048;49.590;11.026;2023-12-28T04:41:41;5.67;;;2.60;;
29280;SDS011;25048;49.590;11.026;2023-12-28T04:44:09;5.00;;;2.40;;
29280;SDS011;25048;49.590;11.026;2023-12-28T04:46:37;4.63;;;2.43;;
29280;SDS011;25048;49.590;11.026;2023-12-28T04:49:07;4.67;;;2.53;;
29280;SDS011;25048;49.590;11.026;2023-12-28T04:51:34;4.43;;;2.40;;
29280;SDS011;25048;49.590;11.026;2023-12-28T04:54:01;5.23;;;2.60;;
29280;SDS011;25048;49.590;11.026;2023-12-28T04:56:29;4.17;;;2.37;;
29280;SDS011;25048;49.590;11.026;2023-12-28T04:58:57;3.37;;;2.20;;
29280;SDS011;25048;49.590;11.026;2023-12-28T05:01:24;4.57;;;2.63;;
29280;SDS011;25048;49.590;11.026;2023-12-28T05:03:51;3.40;;;2.27;;
29280;SDS011;25048;49.590;11.026;2023-12-28T05:06:19;4.63;;;2.37;;
29280;SDS011;25048;49.590;11.026;2023-12-28T05:08:47;2.93;;;2.17;;
29280;SDS011;25048;49.590;11.026;2023-12-28T05:11:14;3.33;;;2.23;;
29280;SDS011;25048;49.590;11.026;2023-12-28T05:13:41;5.67;;;2.53;;
29280;SDS011;25048;49.590;11.026;2023-12-28T05:16:09;4.77;;;2.67;;
29280;SDS011;25048;49.590;11.026;2023-12-28T05:18:36;4.27;;;2.10;;
29280;SDS011;25048;49.590;11.026;2023-12-28T05:21:04;2.40;;;2.10;;
29280;SDS011;25048;49.590;11.026;2023-12-28T05:23:32;4.87;;;2.40;;
29280;SDS011;25048;49.590;11.026;2023-12-28T05:25:59;2.80;;;2.30;;
29280;SDS011;25048;49.590;11.026;2023-12-28T05:28:27;4.97;;;2.23;;
29280;SDS011;25048;49.590;11.026;2023-12-28T05:30:54;9.07;;;2.30;;
29280;SDS011;25048;49.590;11.026;2023-12-28T05:33:23;4.20;;;1.70;;
29280;SDS011;25048;49.590;11.026;2023-12-28T05:35:51;5.87;;;2.43;;
29280;SDS011;25048;49.590;11.026;2023-12-28T05:38:19;5.03;;;2.60;;
29280;SDS011;25048;49.590;11.026;2023-12-28T05:40:46;3.37;;;2.40;;
29280;SDS011;25048;49.590;11.026;2023-12-28T05:43:14;4.70;;;2.43;;
29280;SDS011;25048;49.590;11.026;2023-12-28T05:45:41;3.00;;;2.20;;
29280;SDS011;25048;49.590;11.026;2023-12-28T05:48:09;4.10;;;2.23;;
29280;SDS011;25048;49.590;11.026;2023-12-28T05:50:36;6.07;;;2.63;;
29280;SDS011;25048;49.590;11.026;2023-12-28T05:53:04;3.77;;;2.50;;
29280;SDS011;25048;49.590;11.026;2023-12-28T05:55:31;3.73;;;2.43;;
29280;SDS011;25048;49.590;11.026;2023-12-28T05:57:59;5.33;;;2.67;;
29280;SDS011;25048;49.590;11.026;2023-12-28T06:00:27;4.53;;;2.70;;
29280;SDS011;25048;49.590;11.026;2023-12-28T06:02:54;3.77;;;2.30;;
29280;SDS011;25048;49.590;11.026;2023-12-28T06:05:22;4.07;;;2.30;;
29280;SDS011;25048;49.590;11.026;2023-12-28T06:07:50;3.60;;;2.53;;
29280;SDS011;25048;49.590;11.026;2023-12-28T06:10:17;4.57;;;2.47;;
29280;SDS011;25048;49.590;11.026;2023-12-28T06:12:45;3.80;;;2.33;;
29280;SDS011;25048;49.590;11.026;2023-12-28T06:15:13;4.03;;;2.47;;
29280;SDS011;25048;49.590;11.026;2023-12-28T06:17:41;3.57;;;2.30;;
29280;SDS011;25048;49.590;11.026;2023-12-28T06:20:08;3.63;;;2.30;;
29280;SDS011;25048;49.590;11.026;2023-12-28T06:22:37;4.47;;;2.33;;
29280;SDS011;25048;49.590;11.026;2023-12-28T06:25:04;5.90;;;2.47;;
29280;SDS011;25048;49.590;11.026;2023-12-28T06:27:32;3.33;;;1.87;;
29280;SDS011;25048;49.590;11.026;2023-12-28T06:30:00;5.07;;;2.53;;
29280;SDS011;25048;49.590;11.026;2023-12-28T06:32:27;4.00;;;2.43;;
29280;SDS011;25048;49.590;11.026;2023-12-28T06:34:55;5.03;;;2.80;;
29280;SDS011;25048;49.590;11.026;2023-12-28T06:37:22;4.63;;;2.47;;
29280;SDS011;25048;49.590;11.026;2023-12-28T06:39:50;2.87;;;1.90;;
29280;SDS011;25048;49.590;11.026;2023-12-28T06:42:17;4.87;;;2.50;;
29280;SDS011;25048;49.590;11.026;2023-12-28T06:44:45;3.40;;;2.23;;
29280;SDS011;25048;49.590;11.026;2023-12-28T06:47:12;4.00;;;2.60;;
29280;SDS011;25048;49.590;11.026;2023-12-28T06:49:40;4.33;;;2.60;;
29280;SDS011;25048;49.590;11.026;2023-12-28T06:52:07;8.30;;;3.13;;
29280;SDS011;25048;49.590;11.026;2023-12-28T06:54:35;5.63;;;3.13;;
29280;SDS011;25048;49.590;11.026;2023-12-28T06:57:02;5.50;;;2.63;;
29280;SDS011;25048;49.590;11.026;2023-12-28T06:59:30;3.90;;;2.63;;
29280;SDS011;25048;49.590;11.026;2023-12-28T07:01:58;5.07;;;2.20;;
29280;SDS011;25048;49.590;11.026;2023-12-28T07:04:25;4.77;;;2.37;;
29280;SDS011;25048;49.590;11.026;2023-12-28T07:06:55;4.97;;;2.47;;
29280;SDS011;25048;49.590;11.026;2023-12-28T07:09:22;5.67;;;2.50;;
29280;SDS011;25048;49.590;11.026;2023-12-28T07:11:50;4.27;;;2.53;;
29280;SDS011;25048;49.590;11.026;2023-12-28T07:14:17;7.60;;;2.80;;
29280;SDS011;25048;49.590;11.026;2023-12-28T07:16:45;4.13;;;2.53;;
29280;SDS011;25048;49.590;11.026;2023-12-28T07:19:12;5.30;;;2.53;;
29280;SDS011;25048;49.590;11.026;2023-12-28T07:21:39;4.30;;;2.40;;
29280;SDS011;25048;49.590;11.026;2023-12-28T07:24:07;7.77;;;2.80;;
29280;SDS011;25048;49.590;11.026;2023-12-28T07:26:35;6.47;;;2.60;;
29280;SDS011;25048;49.590;11.026;2023-12-28T07:29:02;5.20;;;2.53;;
29280;SDS011;25048;49.590;11.026;2023-12-28T07:31:30;6.03;;;2.60;;
29280;SDS011;25048;49.590;11.026;2023-12-28T07:33:57;4.77;;;2.60;;
29280;SDS011;25048;49.590;11.026;2023-12-28T07:36:25;3.20;;;2.20;;
29280;SDS011;25048;49.590;11.026;2023-12-28T07:38:52;4.87;;;3.00;;
29280;SDS011;25048;49.590;11.026;2023-12-28T07:41:20;4.80;;;2.43;;
29280;SDS011;25048;49.590;11.026;2023-12-28T07:43:47;5.73;;;2.40;;
29280;SDS011;25048;49.590;11.026;2023-12-28T07:46:15;3.70;;;2.10;;
29280;SDS011;25048;49.590;11.026;2023-12-28T07:48:42;4.97;;;2.40;;
29280;SDS011;25048;49.590;11.026;2023-12-28T07:51:12;4.13;;;2.80;;
29280;SDS011;25048;49.590;11.026;2023-12-28T07:53:39;5.87;;;2.93;;
29280;SDS011;25048;49.590;11.026;2023-12-28T07:56:07;4.90;;;2.47;;
29280;SDS011;25048;49.590;11.026;2023-12-28T07:58:34;6.93;;;3.00;;
29280;SDS011;25048;49.590;11.026;2023-12-28T08:01:03;5.23;;;3.10;;
29280;SDS011;25048;49.590;11.026;2023-12-28T08:03:31;5.23;;;2.87;;
29280;SDS011;25048;49.590;11.026;2023-12-28T08:05:58;4.83;;;2.30;;
29280;SDS011;25048;49.590;11.026;2023-12-28T08:08:26;4.20;;;2.43;;
29280;SDS011;25048;49.590;11.026;2023-12-28T08:10:53;6.07;;;2.90;;
29280;SDS011;25048;49.590;11.026;2023-12-28T08:13:21;4.53;;;2.70;;
29280;SDS011;25048;49.590;11.026;2023-12-28T08:15:49;3.70;;;2.20;;
29280;SDS011;25048;49.590;11.026;2023-12-28T08:18:16;5.60;;;2.70;;
29280;SDS011;25048;49.590;11.026;2023-12-28T08:20:44;3.50;;;2.50;;
29280;SDS011;25048;49.590;11.026;2023-12-28T08:23:11;3.77;;;2.70;;
29280;SDS011;25048;49.590;11.026;2023-12-28T08:25:39;4.60;;;2.57;;
29280;SDS011;25048;49.590;11.026;2023-12-28T08:28:06;4.97;;;2.67;;
29280;SDS011;25048;49.590;11.026;2023-12-28T08:30:34;4.53;;;2.43;;
29280;SDS011;25048;49.590;11.026;2023-12-28T08:33:02;3.00;;;2.30;;
29280;SDS011;25048;49.590;11.026;2023-12-28T08:35:29;7.10;;;2.60;;
29280;SDS011;25048;49.590;11.026;2023-12-28T08:37:57;4.77;;;2.20;;
29280;SDS011;25048;49.590;11.026;2023-12-28T08:40:25;2.97;;;2.17;;
29280;SDS011;25048;49.590;11.026;2023-12-28T08:42:52;3.87;;;2.10;;
29280;SDS011;25048;49.590;11.026;2023-12-28T08:45:19;5.10;;;2.90;;
29280;SDS011;25048;49.590;11.026;2023-12-28T08:47:47;5.97;;;2.87;;
29280;SDS011;25048;49.590;11.026;2023-12-28T08:50:15;5.73;;;2.23;;
29280;SDS011;25048;49.590;11.026;2023-12-28T08:52:42;3.53;;;2.37;;
29280;SDS011;25048;49.590;11.026;2023-12-28T08:55:10;3.93;;;2.40;;
29280;SDS011;25048;49.590;11.026;2023-12-28T08:57:37;6.60;;;3.20;;
29280;SDS011;25048;49.590;11.026;2023-12-28T09:00:06;7.23;;;4.37;;
29280;SDS011;25048;49.590;11.026;2023-12-28T09:02:34;7.23;;;3.43;;
29280;SDS011;25048;49.590;11.026;2023-12-28T09:05:01;4.87;;;2.83;;
29280;SDS011;25048;49.590;11.026;2023-12-28T09:07:29;7.03;;;2.80;;
29280;SDS011;25048;49.590;11.026;2023-12-28T09:09:56;4.10;;;2.37;;
29280;SDS011;25048;49.590;11.026;2023-12-28T09:12:24;5.80;;;2.80;;
29280;SDS011;25048;49.590;11.026;2023-12-28T09:14:51;5.97;;;2.90;;
29280;SDS011;25048;49.590;11.026;2023-12-28T09:17:22;5.13;;;2.73;;
29280;SDS011;25048;49.590;11.026;2023-12-28T09:19:49;4.33;;;2.90;;
29280;SDS011;25048;49.590;11.026;2023-12-28T09:22:17;6.90;;;3.50;;
29280;SDS011;25048;49.590;11.026;2023-12-28T09:24:44;5.70;;;3.53;;
29280;SDS011;25048;49.590;11.026;2023-12-28T09:27:12;5.97;;;3.60;;
29280;SDS011;25048;49.590;11.026;2023-12-28T09:29:39;7.10;;;3.20;;
29280;SDS011;25048;49.590;11.026;2023-12-28T09:32:07;4.70;;;2.73;;
29280;SDS011;25048;49.590;11.026;2023-12-28T09:34:35;4.23;;;2.53;;
29280;SDS011;25048;49.590;11.026;2023-12-28T09:37:02;5.00;;;3.03;;
29280;SDS011;25048;49.590;11.026;2023-12-28T09:39:30;3.83;;;2.53;;
29280;SDS011;25048;49.590;11.026;2023-12-28T09:41:59;7.13;;;3.17;;
29280;SDS011;25048;49.590;11.026;2023-12-28T09:44:28;9.87;;;3.30;;
29280;SDS011;25048;49.590;11.026;2023-12-28T09:46:57;6.27;;;3.20;;
29280;SDS011;25048;49.590;11.026;2023-12-28T09:49:25;5.30;;;3.40;;
29280;SDS011;25048;49.590;11.026;2023-12-28T09:51:53;5.93;;;3.33;;
29280;SDS011;25048;49.590;11.026;2023-12-28T09:54:20;5.23;;;3.10;;
29280;SDS011;25048;49.590;11.026;2023-12-28T09:56:48;3.77;;;2.60;;
29280;SDS011;25048;49.590;11.026;2023-12-28T09:59:16;3.80;;;2.47;;
29280;SDS011;25048;49.590;11.026;2023-12-28T10:01:45;4.50;;;2.83;;
29280;SDS011;25048;49.590;11.026;2023-12-28T10:04:14;5.93;;;2.97;;
29280;SDS011;25048;49.590;11.026;2023-12-28T10:06:43;4.53;;;2.83;;
29280;SDS011;25048;49.590;11.026;2023-12-28T10:09:11;5.30;;;2.57;;
29280;SDS011;25048;49.590;11.026;2023-12-28T10:11:38;6.43;;;3.27;;
29280;SDS011;25048;49.590;11.026;2023-12-28T10:14:07;4.33;;;2.43;;
29280;SDS011;25048;49.590;11.026;2023-12-28T10:16:35;3.63;;;2.33;;
29280;SDS011;25048;49.590;11.026;2023-12-28T10:19:06;4.43;;;2.90;;
29280;SDS011;25048;49.590;11.026;2023-12-28T10:21:34;5.17;;;2.87;;
29280;SDS011;25048;49.590;11.026;2023-12-28T10:24:02;6.50;;;3.67;;
29280;SDS011;25048;49.590;11.026;2023-12-28T10:26:30;5.70;;;3.47;;
29280;SDS011;25048;49.590;11.026;2023-12-28T10:29:01;5.60;;;3.03;;
29280;SDS011;25048;49.590;11.026;2023-12-28T10:31:29;6.77;;;2.60;;
29280;SDS011;25048;49.590;11.026;2023-12-28T10:33:59;5.47;;;2.90;;
29280;SDS011;25048;49.590;11.026;2023-12-28T10:36:30;3.13;;;2.40;;
29280;SDS011;25048;49.590;11.026;2023-12-28T10:38:58;5.83;;;3.30;;
29280;SDS011;25048;49.590;11.026;2023-12-28T10:41:27;4.30;;;2.50;;
29280;SDS011;25048;49.590;11.026;2023-12-28T10:44:03;6.40;;;2.57;;
29280;SDS011;25048;49.590;11.026;2023-12-28T10:46:32;4.53;;;2.93;;
29280;SDS011;25048;49.590;11.026;2023-12-28T10:49:10;4.83;;;2.60;;
29280;SDS011;25048;49.590;11.026;2023-12-28T10:51:40;4.20;;;2.77;;
29280;SDS011;25048;49.590;11.026;2023-12-28T10:59:57;5.13;;;2.70;;
29280;SDS011;25048;49.590;11.026;2023-12-28T11:02:24;7.30;;;2.43;;
29280;SDS011;25048;49.590;11.026;2023-12-28T11:04:54;8.70;;;3.23;;
29280;SDS011;25048;49.590;11.026;2023-12-28T11:07:22;5.50;;;2.97;;
29280;SDS011;25048;49.590;11.026;2023-12-28T11:09:50;7.13;;;3.20;;
29280;SDS011;25048;49.590;11.026;2023-12-28T11:12:20;5.40;;;3.27;;
29280;SDS011;25048;49.590;11.026;2023-12-28T11:14:48;8.57;;;4.47;;
29280;SDS011;25048;49.590;11.026;2023-12-28T11:17:18;8.13;;;4.20;;
29280;SDS011;25048;49.590;11.026;2023-12-28T11:19:47;6.65;;;3.87;;
29280;SDS011;25048;49.590;11.026;2023-12-28T11:22:15;9.13;;;4.10;;
29280;SDS011;25048;49.590;11.026;2023-12-28T11:24:43;4.23;;;3.00;;
29280;SDS011;25048;49.590;11.026;2023-12-28T11:27:11;6.43;;;3.70;;
29280;SDS011;25048;49.590;11.026;2023-12-28T11:29:40;8.77;;;4.17;;
29280;SDS011;25048;49.590;11.026;2023-12-28T11:32:10;5.27;;;3.13;;
29280;SDS011;25048;49.590;11.026;2023-12-28T11:34:37;5.03;;;2.80;;
29280;SDS011;25048;49.590;11.026;2023-12-28T11:37:08;7.67;;;2.90;;
29280;SDS011;25048;49.590;11.026;2023-12-28T11:39:43;5.13;;;2.90;;
29280;SDS011;25048;49.590;11.026;2023-12-28T11:42:10;6.37;;;3.10;;
29280;SDS011;25048;49.590;11.026;2023-12-28T11:44:39;6.47;;;3.20;;
29280;SDS011;25048;49.590;11.026;2023-12-28T11:47:13;6.83;;;3.30;;
29280;SDS011;25048;49.590;11.026;2023-12-28T11:49:43;6.57;;;3.17;;
29280;SDS011;25048;49.590;11.026;2023-12-28T11:52:24;5.43;;;2.83;;
29280;SDS011;25048;49.590;11.026;2023-12-28T11:54:55;7.50;;;3.40;;
29280;SDS011;25048;49.590;11.026;2023-12-28T11:57:25;4.63;;;3.10;;
29280;SDS011;25048;49.590;11.026;2023-12-28T11:59:53;6.23;;;3.70;;
29280;SDS011;25048;49.590;11.026;2023-12-28T12:02:28;8.10;;;3.00;;
29280;SDS011;25048;49.590;11.026;2023-12-28T12:04:55;6.53;;;3.30;;
29280;SDS011;25048;49.590;11.026;2023-12-28T12:07:23;5.03;;;3.13;;
29280;SDS011;25048;49.590;11.026;2023-12-28T12:09:55;5.43;;;3.20;;
29280;SDS011;25048;49.590;11.026;2023-12-28T12:12:24;5.20;;;3.17;;
29280;SDS011;25048;49.590;11.026;2023-12-28T12:14:52;6.50;;;3.73;;
29280;SDS011;25048;49.590;11.026;2023-12-28T12:17:22;8.18;;;3.83;;
29280;SDS011;25048;49.590;11.026;2023-12-28T12:19:50;8.30;;;3.10;;
29280;SDS011;25048;49.590;11.026;2023-12-28T12:22:20;5.57;;;3.50;;
29280;SDS011;25048;49.590;11.026;2023-12-28T12:24:48;4.90;;;3.37;;
29280;SDS011;25048;49.590;11.026;2023-12-28T12:27:17;6.43;;;2.83;;
29280;SDS011;25048;49.590;11.026;2023-12-28T12:29:45;5.40;;;3.00;;
29280;SDS011;25048;49.590;11.026;2023-12-28T12:32:13;4.37;;;2.67;;
29280;SDS011;25048;49.590;11.026;2023-12-28T12:34:41;6.37;;;3.23;;
29280;SDS011;25048;49.590;11.026;2023-12-28T12:37:08;5.43;;;2.93;;
29280;SDS011;25048;49.590;11.026;2023-12-28T12:39:36;6.97;;;3.47;;
29280;SDS011;25048;49.590;11.026;2023-12-28T12:42:03;8.35;;;4.25;;
29280;SDS011;25048;49.590;11.026;2023-12-28T12:44:32;9.80;;;4.43;;
29280;SDS011;25048;49.590;11.026;2023-12-28T12:47:00;9.53;;;4.37;;
29280;SDS011;25048;49.590;11.026;2023-12-28T12:49:30;7.33;;;3.87;;
29280;SDS011;25048;49.590;11.026;2023-12-28T12:51:58;6.22;;;3.83;;
29280;SDS011;25048;49.590;11.026;2023-12-28T12:54:27;6.57;;;3.23;;
29280;SDS011;25048;49.590;11.026;2023-12-28T12:56:54;5.33;;;3.40;;
29280;SDS011;25048;49.590;11.026;2023-12-28T12:59:22;6.67;;;3.25;;
29280;SDS011;25048;49.590;11.026;2023-12-28T13:01:51;10.50;;;3.83;;
29280;SDS011;25048;49.590;11.026;2023-12-28T13:04:19;9.60;;;3.80;;
29280;SDS011;25048;49.590;11.026;2023-12-28T13:06:47;6.85;;;3.65;;
29280;SDS011;25048;49.590;11.026;2023-12-28T13:09:15;6.70;;;3.70;;
29280;SDS011;25048;49.590;11.026;2023-12-28T13:11:42;6.57;;;3.73;;
29280;SDS011;25048;49.590;11.026;2023-12-28T13:14:12;7.83;;;3.60;;
29280;SDS011;25048;49.590;11.026;2023-12-28T13:16:39;7.37;;;4.10;;
29280;SDS011;25048;49.590;11.026;2023-12-28T13:19:07;7.53;;;4.13;;
29280;SDS011;25048;49.590;11.026;2023-12-28T13:21:34;6.73;;;4.00;;
29280;SDS011;25048;49.590;11.026;2023-12-28T13:24:02;9.03;;;3.50;;
29280;SDS011;25048;49.590;11.026;2023-12-28T13:26:30;6.33;;;3.90;;
29280;SDS011;25048;49.590;11.026;2023-12-28T13:28:57;5.77;;;3.70;;
29280;SDS011;25048;49.590;11.026;2023-12-28T13:31:25;6.67;;;3.67;;
29280;SDS011;25048;49.590;11.026;2023-12-28T13:33:52;8.93;;;4.37;;
29280;SDS011;25048;49.590;11.026;2023-12-28T13:36:20;8.37;;;4.20;;
29280;SDS011;25048;49.590;11.026;2023-12-28T13:38:47;6.23;;;3.37;;
29280;SDS011;25048;49.590;11.026;2023-12-28T13:41:15;6.27;;;3.70;;
29280;SDS011;25048;49.590;11.026;2023-12-28T13:43:42;6.77;;;4.03;;
29280;SDS011;25048;49.590;11.026;2023-12-28T13:46:10;5.50;;;3.97;;
29280;SDS011;25048;49.590;11.026;2023-12-28T13:48:37;5.87;;;3.40;;
29280;SDS011;25048;49.590;11.026;2023-12-28T13:51:05;6.07;;;3.60;;
29280;SDS011;25048;49.590;11.026;2023-12-28T13:53:33;6.57;;;3.40;;
29280;SDS011;25048;49.590;11.026;2023-12-28T13:56:02;4.87;;;3.30;;
29280;SDS011;25048;49.590;11.026;2023-12-28T13:58:30;5.53;;;3.37;;
29280;SDS011;25048;49.590;11.026;2023-12-28T14:00:57;6.57;;;3.97;;
29280;SDS011;25048;49.590;11.026;2023-12-28T14:03:25;6.00;;;3.73;;
29280;SDS011;25048;49.590;11.026;2023-12-28T14:05:52;5.90;;;3.37;;
29280;SDS011;25048;49.590;11.026;2023-12-28T14:08:20;6.63;;;3.73;;
29280;SDS011;25048;49.590;11.026;2023-12-28T14:10:48;7.03;;;3.70;;
29280;SDS011;25048;49.590;11.026;2023-12-28T14:13:15;7.97;;;4.43;;
29280;SDS011;25048;49.590;11.026;2023-12-28T14:15:43;9.73;;;5.60;;
29280;SDS011;25048;49.590;11.026;2023-12-28T14:18:10;13.43;;;6.90;;
29280;SDS011;25048;49.590;11.026;2023-12-28T14:20:38;13.00;;;5.80;;
29280;SDS011;25048;49.590;11.026;2023-12-28T14:23:05;11.20;;;6.33;;
29280;SDS011;25048;49.590;11.026;2023-12-28T14:25:33;10.07;;;6.03;;
29280;SDS011;25048;49.590;11.026;2023-12-28T14:28:01;11.80;;;6.43;;
29280;SDS011;25048;49.590;11.026;2023-12-28T14:30:29;10.43;;;5.17;;
29280;SDS011;25048;49.590;11.026;2023-12-28T14:32:57;9.40;;;5.27;;
29280;SDS011;25048;49.590;11.026;2023-12-28T14:35:25;10.27;;;4.83;;
29280;SDS011;25048;49.590;11.026;2023-12-28T14:37:54;10.30;;;5.47;;
29280;SDS011;25048;49.590;11.026;2023-12-28T14:40:21;11.07;;;5.57;;
29280;SDS011;25048;49.590;11.026;2023-12-28T14:42:49;11.63;;;5.37;;
29280;SDS011;25048;49.590;11.026;2023-12-28T14:45:16;8.80;;;4.57;;